createdAt,value
2018-04-23T00:04:17.115Z,8.30
2018-04-23T00:09:08.627Z,9.30
2018-04-23T00:14:00.869Z,9.23
2018-04-23T00:18:52.469Z,7.00
2018-04-23T00:23:43.964Z,6.73
2018-04-23T00:28:36.204Z,5.50
2018-04-23T00:33:28.443Z,5.73
2018-04-23T00:38:19.934Z,5.50
2018-04-23T00:43:11.433Z,5.80
2018-04-23T00:48:03.706Z,6.10
2018-04-23T00:53:13.616Z,5.50
2018-04-23T00:58:05.140Z,6.60
2018-04-23T01:02:56.657Z,6.30
2018-04-23T01:07:48.148Z,6.00
2018-04-23T01:12:40.382Z,5.97
2018-04-23T01:17:32.657Z,6.03
2018-04-23T01:22:24.166Z,5.80
2018-04-23T01:27:16.440Z,5.97
2018-04-23T01:32:07.948Z,6.27
2018-04-23T01:37:00.203Z,6.20
2018-04-23T01:41:52.448Z,5.80
2018-04-23T01:46:43.949Z,5.77
2018-04-23T01:51:35.450Z,4.80
2018-04-23T01:56:27.008Z,4.93
2018-04-23T02:01:18.529Z,4.53
2018-04-23T02:06:10.115Z,5.20
2018-04-23T02:11:01.656Z,5.80
2018-04-23T02:15:53.895Z,5.80
2018-04-23T02:20:45.378Z,5.90
2018-04-23T02:25:36.884Z,6.27
2018-04-23T02:30:29.121Z,7.30
2018-04-23T02:35:20.623Z,6.87
2018-04-23T02:40:12.233Z,6.73
2018-04-23T02:45:03.772Z,7.23
2018-04-23T02:49:55.259Z,7.23
2018-04-23T02:54:47.522Z,6.60
2018-04-23T02:59:39.796Z,7.20
2018-04-23T03:04:31.319Z,6.47
2018-04-23T03:09:23.553Z,7.13
2018-04-23T03:14:15.793Z,7.50
2018-04-23T03:19:07.337Z,6.87
2018-04-23T03:24:00.275Z,6.53
2018-04-23T03:28:51.758Z,6.80
2018-04-23T03:33:43.274Z,7.30
2018-04-23T03:38:35.516Z,7.00
2018-04-23T03:43:27.000Z,6.60
2018-04-23T03:48:18.495Z,6.50
2018-04-23T03:53:10.746Z,5.83
2018-04-23T03:58:03.030Z,7.00
2018-04-23T04:02:54.543Z,6.03
2018-04-23T04:07:46.080Z,6.20
2018-04-23T04:18:36.179Z,7.10
2018-04-23T04:23:27.672Z,7.10
2018-04-23T04:28:19.138Z,6.53
2018-04-23T04:33:10.672Z,7.43
2018-04-23T04:38:02.151Z,6.50
2018-04-23T04:42:53.671Z,7.43
2018-04-23T04:47:45.909Z,5.97
2018-04-23T04:52:37.430Z,6.33
2018-04-23T04:57:28.947Z,6.53
2018-04-23T05:02:20.438Z,6.73
2018-04-23T05:07:11.917Z,4.80
2018-04-23T05:12:03.476Z,4.90
2018-04-23T05:16:55.718Z,4.67
2018-04-23T05:21:47.231Z,4.90
2018-04-23T05:26:38.703Z,5.23
2018-04-23T05:31:30.953Z,4.87
2018-04-23T05:36:23.193Z,5.10
2018-04-23T05:41:14.693Z,5.00
2018-04-23T05:46:06.191Z,4.17
2018-04-23T05:50:57.681Z,4.90
2018-04-23T05:55:49.183Z,5.10
2018-04-23T06:00:40.675Z,6.67
2018-04-23T06:05:32.934Z,4.50
2018-04-23T06:10:24.432Z,4.93
2018-04-23T06:15:15.931Z,4.63
2018-04-23T06:20:07.447Z,4.67
2018-04-23T06:24:58.940Z,5.40
2018-04-23T06:29:51.474Z,4.90
2018-04-23T06:34:43.035Z,4.70
2018-04-23T06:39:34.567Z,6.17
2018-04-23T06:44:26.111Z,4.87
2018-04-23T06:49:18.349Z,5.00
2018-04-23T06:54:09.854Z,5.33
2018-04-23T06:59:01.450Z,5.10
2018-04-23T07:03:52.914Z,5.27
2018-04-23T07:08:44.434Z,5.93
2018-04-23T07:13:35.920Z,6.07
2018-04-23T07:18:27.450Z,6.60
2018-04-23T07:23:19.012Z,6.60
2018-04-23T07:28:11.337Z,6.17
2018-04-23T07:33:03.008Z,6.40
2018-04-23T07:37:54.993Z,6.67
2018-04-23T07:42:46.505Z,6.37
2018-04-23T07:47:38.006Z,5.60
2018-04-23T07:52:30.445Z,6.07
2018-04-23T07:57:21.947Z,6.60
2018-04-23T08:02:13.438Z,6.83
2018-04-23T08:07:05.664Z,6.67
2018-04-23T08:11:57.177Z,6.63
2018-04-23T08:16:48.655Z,6.63
2018-04-23T08:21:40.930Z,6.40
2018-04-23T08:26:32.444Z,6.63
2018-04-23T08:31:24.932Z,6.33
2018-04-23T08:36:16.459Z,7.00
2018-04-23T08:41:07.987Z,7.70
2018-04-23T08:45:59.524Z,7.43
2018-04-23T08:50:51.144Z,6.57
2018-04-23T08:55:43.425Z,7.37
2018-04-23T09:00:34.971Z,7.73
2018-04-23T09:05:27.211Z,7.20
2018-04-23T09:10:18.718Z,8.23
2018-04-23T09:15:10.424Z,8.03
2018-04-23T09:20:01.945Z,6.90
2018-04-23T09:24:53.557Z,8.53
2018-04-23T09:29:45.041Z,9.07
2018-04-23T09:34:37.297Z,9.07
2018-04-23T09:39:29.671Z,8.80
2018-04-23T09:44:21.229Z,9.00
2018-04-23T09:49:12.888Z,9.17
2018-04-23T09:54:04.388Z,9.17
2018-04-23T09:58:55.915Z,10.00
2018-04-23T10:03:50.363Z,8.77
2018-04-23T10:08:42.385Z,8.67
2018-04-23T10:13:33.881Z,8.23
2018-04-23T10:18:26.172Z,8.90
2018-04-23T10:23:17.655Z,9.27
2018-04-23T10:28:09.959Z,10.10
2018-04-23T10:33:01.499Z,8.23
2018-04-23T10:37:53.059Z,8.67
2018-04-23T10:42:44.588Z,8.93
2018-04-23T10:47:36.091Z,8.10
2018-04-23T10:52:27.607Z,7.17
2018-04-23T10:57:19.095Z,6.20
2018-04-23T11:02:10.621Z,7.40
2018-04-23T11:07:02.147Z,6.87
2018-04-23T11:11:53.662Z,5.30
2018-04-23T11:16:45.168Z,7.20
2018-04-23T11:21:36.702Z,6.97
2018-04-23T11:26:28.213Z,6.23
2018-04-23T11:31:20.488Z,5.93
2018-04-23T11:36:11.972Z,5.57
2018-04-23T11:41:03.502Z,4.77
2018-04-23T11:45:56.105Z,4.37
2018-04-23T11:50:47.620Z,5.10
2018-04-23T11:55:39.856Z,3.57
2018-04-23T12:00:31.376Z,4.50
2018-04-23T12:05:22.868Z,4.20
2018-04-23T12:10:14.374Z,4.50
2018-04-23T12:15:06.624Z,4.43
2018-04-23T12:19:58.844Z,3.60
2018-04-23T12:24:50.356Z,4.83
2018-04-23T12:29:41.838Z,4.87
2018-04-23T12:34:34.163Z,4.93
2018-04-23T12:39:25.781Z,5.23
2018-04-23T12:44:17.533Z,4.87
2018-04-23T12:49:09.770Z,4.83
2018-04-23T12:54:02.052Z,5.00
2018-04-23T12:58:53.577Z,4.50
2018-04-23T13:03:45.079Z,4.47
2018-04-23T13:08:36.581Z,4.27
2018-04-23T13:13:28.852Z,2.93
2018-04-23T13:18:20.423Z,3.70
2018-04-23T13:23:11.992Z,3.70
2018-04-23T13:28:04.325Z,2.70
2018-04-23T13:32:55.845Z,3.77
2018-04-23T13:37:47.487Z,3.00
2018-04-23T13:42:38.998Z,3.30
2018-04-23T13:47:30.476Z,3.30
2018-04-23T13:52:22.759Z,3.00
2018-04-23T13:57:14.297Z,2.97
2018-04-23T14:02:05.800Z,2.33
2018-04-23T14:06:58.109Z,3.10
2018-04-23T14:11:49.582Z,3.90
2018-04-23T14:16:41.856Z,3.57
2018-04-23T14:21:33.366Z,3.03
2018-04-23T14:26:25.733Z,3.40
2018-04-23T14:31:18.085Z,3.77
2018-04-23T14:36:10.353Z,5.10
2018-04-23T14:41:01.868Z,3.77
2018-04-23T14:45:54.099Z,4.07
2018-04-23T14:50:45.602Z,5.13
2018-04-23T14:55:37.109Z,4.80
2018-04-23T15:00:28.645Z,5.90
2018-04-23T15:05:20.179Z,5.97
2018-04-23T15:10:11.685Z,7.00
2018-04-23T15:15:03.925Z,7.00
2018-04-23T15:19:55.438Z,7.07
2018-04-23T15:24:46.924Z,7.23
2018-04-23T15:29:38.486Z,7.60
2018-04-23T15:34:29.967Z,6.33
2018-04-23T15:39:22.377Z,7.33
2018-04-23T15:44:13.890Z,6.10
2018-04-23T15:49:05.356Z,5.60
2018-04-23T15:53:56.914Z,5.80
2018-04-23T15:58:49.149Z,5.53
2018-04-23T16:03:40.660Z,5.50
2018-04-23T16:08:32.187Z,4.87
2018-04-23T16:13:23.736Z,5.20
2018-04-23T16:18:15.265Z,4.43
2018-04-23T16:23:06.787Z,4.50
2018-04-23T16:27:58.321Z,4.70
2018-04-23T16:32:49.831Z,5.00
2018-04-23T16:37:41.312Z,6.00
2018-04-23T16:42:32.839Z,4.30
2018-04-23T16:47:24.332Z,4.43
2018-04-23T16:52:15.834Z,4.70
2018-04-23T16:57:07.327Z,4.67
2018-04-23T17:01:58.816Z,3.60
2018-04-23T17:06:51.090Z,3.80
2018-04-23T17:11:42.602Z,3.50
2018-04-23T17:16:34.911Z,3.60
2018-04-23T17:21:26.451Z,3.50
2018-04-23T17:26:17.990Z,3.47
2018-04-23T17:31:09.500Z,3.90
2018-04-23T17:36:01.027Z,4.13
2018-04-23T17:40:52.527Z,4.87
2018-04-23T17:45:44.823Z,4.03
2018-04-23T17:50:36.342Z,3.60
2018-04-23T17:55:27.877Z,4.97
2018-04-23T18:00:19.397Z,4.17
2018-04-23T18:05:10.906Z,3.93
2018-04-23T18:10:03.221Z,5.03
2018-04-23T18:14:54.695Z,4.67
2018-04-23T18:19:46.973Z,3.77
2018-04-23T18:24:38.491Z,3.13
2018-04-23T18:29:30.727Z,3.50
2018-04-23T18:34:22.994Z,3.53
2018-04-23T18:39:14.519Z,4.00
2018-04-23T18:44:07.627Z,4.20
2018-04-23T18:48:59.122Z,7.40
2018-04-23T18:53:51.379Z,4.47
2018-04-23T18:58:43.683Z,4.50
2018-04-23T19:03:35.161Z,5.13
2018-04-23T19:08:27.464Z,5.53
2018-04-23T19:13:18.949Z,5.50
2018-04-23T19:18:11.194Z,5.50
2018-04-23T19:23:03.445Z,5.73
2018-04-23T19:27:55.679Z,6.63
2018-04-23T19:32:47.199Z,5.40
2018-04-23T19:37:38.707Z,7.67
2018-04-23T19:42:30.204Z,6.47
2018-04-23T19:47:22.468Z,6.40
2018-04-23T19:52:13.983Z,6.17
2018-04-23T19:57:06.224Z,6.60
2018-04-23T20:01:58.507Z,6.40
2018-04-23T20:06:50.027Z,5.70
2018-04-23T20:11:41.539Z,6.10
2018-04-23T20:16:33.150Z,7.27
2018-04-23T20:21:24.738Z,6.63
2018-04-23T20:26:16.193Z,6.40
2018-04-23T20:31:07.663Z,6.10
2018-04-23T20:35:59.181Z,12.47
2018-04-23T20:40:50.676Z,6.30
2018-04-23T20:45:42.193Z,7.87
2018-04-23T20:50:34.510Z,6.67
2018-04-23T20:55:26.031Z,7.03
2018-04-23T21:00:17.571Z,6.50
2018-04-23T21:05:09.077Z,6.70
2018-04-23T21:10:00.596Z,5.80
2018-04-23T21:14:52.116Z,4.97
2018-04-23T21:19:44.369Z,4.20
2018-04-23T21:24:36.618Z,3.70
2018-04-23T21:29:28.874Z,5.93
2018-04-23T21:34:21.109Z,3.47
2018-04-23T21:39:13.448Z,3.70
2018-04-23T21:44:04.983Z,3.00
2018-04-23T21:48:57.255Z,3.17
2018-04-23T21:53:49.566Z,4.43
2018-04-23T21:58:41.073Z,3.20
2018-04-23T22:03:33.491Z,3.20
2018-04-23T22:08:25.765Z,2.43
2018-04-23T22:13:17.277Z,2.27
2018-04-23T22:18:09.556Z,2.43
2018-04-23T22:23:01.783Z,2.60
2018-04-23T22:27:53.995Z,2.80
2018-04-23T22:32:45.550Z,2.60
2018-04-23T22:37:37.829Z,2.67
2018-04-23T22:42:29.380Z,2.23
2018-04-23T22:47:20.880Z,2.57
2018-04-23T22:52:13.214Z,2.43
2018-04-23T22:57:04.686Z,2.23
2018-04-23T23:01:56.176Z,2.30
2018-04-23T23:06:47.685Z,2.10
2018-04-23T23:11:40.049Z,2.70
2018-04-23T23:16:31.573Z,2.40
2018-04-23T23:21:23.091Z,2.27
2018-04-23T23:26:14.578Z,2.83
2018-04-23T23:31:06.092Z,2.47
2018-04-23T23:35:57.587Z,2.33
2018-04-23T23:40:49.103Z,2.20
2018-04-23T23:45:40.650Z,2.70
2018-04-23T23:50:32.187Z,2.10
2018-04-23T23:55:23.675Z,2.13
